Time;durP1;ratioP1;P1;durP2;ratioP2;P2;SDS_P1;SDS_P2;PMS_P1;PMS_P2;Temp;Humidity;BMP_temperature;BMP_pressure;BME280_temperature;BME280_humidity;BME280_pressure;Samples;Min_cycle;Max_cycle;Signal;HPM_P1;HPM_P2
2023/09/02 00:01:15;;;;;;;96.55;38.47;;;;;;;17.08;100.00;101687.59;4991001;28;20100;-60
2023/09/02 00:03:40;;;;;;;94.68;39.80;;;;;;;17.07;100.00;101685.88;5005865;28;20033;-58
2023/09/02 00:06:05;;;;;;;97.07;39.50;;;;;;;17.06;100.00;101700.06;4987648;28;20385;-59
2023/09/02 00:08:31;;;;;;;92.10;38.88;;;;;;;17.09;100.00;101689.31;4987577;28;20034;-60
2023/09/02 00:10:56;;;;;;;96.90;39.72;;;;;;;17.11;100.00;101689.25;4988081;28;20035;-60
2023/09/02 00:13:21;;;;;;;93.03;39.83;;;;;;;17.17;100.00;101687.16;4988648;28;20026;-59
2023/09/02 00:15:47;;;;;;;100.30;41.90;;;;;;;17.17;100.00;101687.16;4986892;28;20553;-60
2023/09/02 00:18:12;;;;;;;91.05;38.22;;;;;;;17.16;100.00;101684.56;4987441;28;20033;-60
2023/09/02 00:20:37;;;;;;;95.35;39.75;;;;;;;17.11;100.00;101686.56;4987379;28;20489;-61
2023/09/02 00:23:03;;;;;;;99.50;41.08;;;;;;;17.05;100.00;101687.72;4988543;28;20038;-60
2023/09/02 00:25:28;;;;;;;101.43;42.33;;;;;;;17.03;100.00;101678.91;4987784;28;20509;-59
2023/09/02 00:27:54;;;;;;;118.35;45.90;;;;;;;16.99;100.00;101677.34;4987408;28;20038;-60
2023/09/02 00:30:21;;;;;;;102.70;41.92;;;;;;;16.92;100.00;101674.97;4988428;28;20034;-61
2023/09/02 00:32:46;;;;;;;102.38;43.45;;;;;;;16.89;100.00;101680.44;4986497;28;20385;-59
2023/09/02 00:35:11;;;;;;;104.47;43.65;;;;;;;16.87;100.00;101685.00;4987781;28;20084;-58
2023/09/02 00:37:37;;;;;;;110.78;45.17;;;;;;;16.87;100.00;101677.00;4994722;28;20526;-59
2023/09/02 00:40:03;;;;;;;98.00;42.83;;;;;;;16.83;100.00;101683.41;5007124;28;20381;-59
2023/09/02 00:42:30;;;;;;;102.38;43.08;;;;;;;16.74;100.00;101681.19;5001673;28;20465;-58
2023/09/02 00:44:56;;;;;;;116.63;45.42;;;;;;;16.68;100.00;101685.84;4969438;28;20025;-59
2023/09/02 00:47:21;;;;;;;107.45;44.17;;;;;;;16.64;100.00;101686.91;4987361;28;20034;-58
2023/09/02 00:49:47;;;;;;;102.93;42.83;;;;;;;16.61;100.00;101684.41;4987151;28;20027;-58
2023/09/02 00:52:12;;;;;;;101.20;41.88;;;;;;;16.59;100.00;101686.28;4987718;28;20884;-59
2023/09/02 00:54:37;;;;;;;101.35;42.40;;;;;;;16.57;100.00;101681.94;4985786;28;20093;-59
2023/09/02 00:57:03;;;;;;;119.75;46.58;;;;;;;16.54;100.00;101689.16;4970216;28;20113;-58
2023/09/02 00:59:28;;;;;;;111.43;43.35;;;;;;;16.49;100.00;101684.94;4969785;28;20035;-59
2023/09/02 01:01:55;;;;;;;121.15;45.28;;;;;;;16.45;100.00;101688.69;4999538;28;20052;-59
2023/09/02 01:04:21;;;;;;;114.65;45.60;;;;;;;16.41;100.00;101686.16;4989914;28;20030;-59
2023/09/02 01:06:47;;;;;;;119.97;46.50;;;;;;;16.38;100.00;101688.97;4989738;28;20069;-59
2023/09/02 01:09:13;;;;;;;120.88;45.70;;;;;;;16.38;100.00;101688.13;5007502;28;20423;-59
2023/09/02 01:11:38;;;;;;;104.78;42.33;;;;;;;16.35;100.00;101689.13;5005101;28;20029;-59
2023/09/02 01:14:04;;;;;;;111.75;44.33;;;;;;;16.37;100.00;101692.56;5006720;28;20061;-59
2023/09/02 01:16:29;;;;;;;117.53;45.45;;;;;;;16.38;100.00;101701.41;5006072;28;20117;-59
2023/09/02 01:18:55;;;;;;;125.07;46.63;;;;;;;16.38;100.00;101696.94;5006225;28;20022;-59
2023/09/02 01:21:58;;;;;;;119.78;45.65;;;;;;;16.40;100.00;101696.88;5004497;28;20463;-59
2023/09/02 01:25:01;;;;;;;115.90;44.50;;;;;;;16.45;100.00;101704.66;5006488;28;20045;-60
2023/09/02 01:27:51;;;;;;;120.40;46.88;;;;;;;16.53;100.00;101707.84;5005793;28;20053;-57
2023/09/02 01:30:21;;;;;;;130.05;49.05;;;;;;;16.54;100.00;101710.44;4981905;28;20038;-59
2023/09/02 01:32:50;;;;;;;130.82;47.28;;;;;;;16.54;100.00;101715.75;4976971;28;20117;-59
2023/09/02 01:35:17;;;;;;;128.98;48.17;;;;;;;16.56;100.00;101718.34;4987128;28;20023;-59
2023/09/02 01:37:45;;;;;;;142.02;50.75;;;;;;;16.57;100.00;101714.75;4986826;28;20732;-61
2023/09/02 01:40:25;;;;;;;129.23;48.13;;;;;;;16.60;100.00;101722.59;4990084;28;20077;-62
2023/09/02 01:42:56;;;;;;;134.00;50.05;;;;;;;16.64;100.00;101726.84;4974295;28;20034;-59
2023/09/02 01:45:24;;;;;;;139.70;50.70;;;;;;;16.69;100.00;101726.63;4990469;28;20752;-59
2023/09/02 01:47:50;;;;;;;146.37;51.43;;;;;;;16.75;100.00;101728.13;4972880;28;20030;-60
2023/09/02 01:50:17;;;;;;;167.93;54.35;;;;;;;16.78;100.00;101717.34;4973277;28;20027;-59
2023/09/02 01:52:43;;;;;;;155.57;52.50;;;;;;;16.79;100.00;101732.38;4973899;28;20061;-61
2023/09/02 01:55:09;;;;;;;172.50;53.28;;;;;;;16.85;100.00;101731.22;4990698;28;20049;-60
2023/09/02 01:57:35;;;;;;;161.85;53.20;;;;;;;16.84;100.00;101727.72;4990418;28;20105;-59
2023/09/02 02:00:01;;;;;;;183.02;55.70;;;;;;;16.88;100.00;101726.63;4973183;28;20389;-59
2023/09/02 02:02:26;;;;;;;192.68;52.88;;;;;;;16.89;100.00;101724.84;4989728;28;20014;-58
2023/09/02 02:04:54;;;;;;;171.60;45.33;;;;;;;16.88;100.00;101739.06;4990806;28;20459;-59
2023/09/02 02:07:21;;;;;;;116.53;43.07;;;;;;;16.91;100.00;101738.94;4973215;28;20050;-59
2023/09/02 02:09:49;;;;;;;234.15;45.17;;;;;;;16.96;100.00;101744.03;4972957;28;20414;-59
2023/09/02 02:12:14;;;;;;;125.38;39.70;;;;;;;16.85;100.00;101744.53;4973126;28;20034;-60
2023/09/02 02:14:39;;;;;;;91.78;37.95;;;;;;;16.87;100.00;101748.00;4991620;28;20405;-58
2023/09/02 02:17:06;;;;;;;89.78;36.60;;;;;;;16.86;100.00;101746.28;5009960;28;20077;-59
2023/09/02 02:19:32;;;;;;;94.05;36.80;;;;;;;16.86;100.00;101751.59;5008480;28;20018;-58
2023/09/02 02:21:58;;;;;;;232.52;37.47;;;;;;;16.83;100.00;101749.97;4992813;28;20036;-59
2023/09/02 02:24:24;;;;;;;121.65;36.83;;;;;;;16.84;100.00;101746.34;4992459;28;20421;-58
2023/09/02 02:26:49;;;;;;;73.30;32.38;;;;;;;16.87;100.00;101745.34;4990769;28;20031;-61
2023/09/02 02:29:14;;;;;;;94.28;37.40;;;;;;;16.85;100.00;101745.41;4991280;28;20034;-63
2023/09/02 02:31:40;;;;;;;103.25;33.45;;;;;;;16.84;100.00;101745.47;4989393;28;20122;-60
2023/09/02 02:34:05;;;;;;;189.13;34.70;;;;;;;16.78;100.00;101744.84;4988816;28;20469;-61
2023/09/02 02:36:30;;;;;;;118.18;32.03;;;;;;;16.75;100.00;101744.97;4987544;28;20116;-58
2023/09/02 02:38:56;;;;;;;110.25;32.22;;;;;;;16.72;100.00;101744.25;4989551;28;20473;-63
2023/09/02 02:41:21;;;;;;;193.00;33.03;;;;;;;16.69;100.00;101745.25;4988958;28;20030;-61
2023/09/02 02:43:47;;;;;;;122.32;32.60;;;;;;;16.65;100.00;101744.50;4989751;28;20029;-59
2023/09/02 02:46:12;;;;;;;187.00;32.70;;;;;;;16.72;100.00;101746.91;4990028;28;20117;-58
2023/09/02 02:48:37;;;;;;;94.75;31.25;;;;;;;16.72;100.00;101749.56;4989053;28;20018;-60
2023/09/02 02:51:03;;;;;;;98.47;31.77;;;;;;;16.63;100.00;101756.16;4989545;28;20023;-59
2023/09/02 02:53:28;;;;;;;68.35;30.33;;;;;;;16.60;100.00;101754.50;4989502;28;20088;-59
2023/09/02 02:55:53;;;;;;;237.85;36.25;;;;;;;16.48;100.00;101749.72;4989676;28;20031;-60
2023/09/02 02:58:19;;;;;;;80.13;33.15;;;;;;;16.58;100.00;101752.88;4990140;28;20031;-56
2023/09/02 03:00:46;;;;;;;128.98;34.80;;;;;;;16.62;100.00;101749.97;4989628;28;20030;-60
2023/09/02 03:03:12;;;;;;;117.60;35.83;;;;;;;16.60;100.00;101749.19;4989248;28;20026;-60
2023/09/02 03:05:39;;;;;;;79.72;33.70;;;;;;;16.64;100.00;101747.25;4989298;28;20213;-59
2023/09/02 03:08:05;;;;;;;66.93;30.60;;;;;;;16.65;100.00;101751.66;4989389;28;20050;-61
2023/09/02 03:10:32;;;;;;;76.78;32.67;;;;;;;16.65;100.00;101759.63;4994298;28;20029;-59
2023/09/02 03:12:57;;;;;;;80.95;34.00;;;;;;;16.68;100.00;101762.16;5008552;28;20022;-58
2023/09/02 03:15:23;;;;;;;75.05;33.85;;;;;;;16.67;100.00;101760.41;5008243;28;20032;-59
2023/09/02 03:17:48;;;;;;;92.03;32.95;;;;;;;16.64;100.00;101765.88;5008072;28;20020;-56
2023/09/02 03:20:14;;;;;;;78.35;32.67;;;;;;;16.64;100.00;101769.41;4988859;28;20473;-59
2023/09/02 03:22:42;;;;;;;104.78;34.85;;;;;;;16.65;100.00;101762.28;4989033;28;20037;-59
2023/09/02 03:25:07;;;;;;;85.07;33.03;;;;;;;16.65;100.00;101765.81;4987700;28;20018;-60
2023/09/02 03:27:37;;;;;;;105.55;33.75;;;;;;;16.61;100.00;101761.56;4989044;28;20289;-59
2023/09/02 03:30:03;;;;;;;91.45;34.53;;;;;;;16.65;100.00;101765.81;4971846;28;20109;-59
2023/09/02 03:32:28;;;;;;;85.00;33.42;;;;;;;16.63;100.00;101762.38;4988516;28;20022;-59
2023/09/02 03:34:54;;;;;;;176.57;36.45;;;;;;;16.59;100.00;101758.13;4988808;28;20065;-60
2023/09/02 03:37:19;;;;;;;93.15;33.78;;;;;;;16.58;100.00;101759.03;4988468;28;20045;-61
2023/09/02 03:39:45;;;;;;;166.85;33.92;;;;;;;16.60;100.00;101766.94;4988824;28;20031;-56
2023/09/02 03:42:10;;;;;;;116.97;34.15;;;;;;;16.50;100.00;101767.34;4988849;28;20038;-58
2023/09/02 03:44:36;;;;;;;70.22;31.23;;;;;;;16.51;100.00;101777.06;4988856;28;20713;-59
2023/09/02 03:47:01;;;;;;;127.43;32.33;;;;;;;16.50;100.00;101769.16;4988534;28;20061;-59
2023/09/02 03:49:26;;;;;;;121.65;30.52;;;;;;;16.50;100.00;101775.31;4988833;28;20085;-58
2023/09/02 03:51:52;;;;;;;124.25;32.63;;;;;;;16.48;100.00;101773.66;4970614;28;20081;-59
2023/09/02 03:54:17;;;;;;;108.18;31.58;;;;;;;16.48;100.00;101773.66;4988261;28;20120;-60
2023/09/02 03:56:42;;;;;;;111.32;30.90;;;;;;;16.51;100.00;101770.88;4994567;28;20045;-59
2023/09/02 03:59:08;;;;;;;95.53;31.48;;;;;;;16.46;100.00;101770.22;5008289;28;20034;-59
2023/09/02 04:01:33;;;;;;;117.85;30.80;;;;;;;16.47;100.00;101772.84;5006843;28;20389;-58
2023/09/02 04:03:59;;;;;;;84.90;30.60;;;;;;;16.44;100.00;101775.63;4989053;28;20023;-60
2023/09/02 04:06:25;;;;;;;145.73;33.13;;;;;;;16.42;100.00;101777.47;4987815;28;20037;-58
2023/09/02 04:08:50;;;;;;;161.70;31.02;;;;;;;16.41;100.00;101783.72;4987271;28;20535;-62
2023/09/02 04:11:16;;;;;;;102.30;30.23;;;;;;;16.38;100.00;101779.38;4987936;28;20061;-58
2023/09/02 04:13:42;;;;;;;76.03;27.23;;;;;;;16.37;100.00;101783.00;4987133;28;20555;-61
2023/09/02 04:16:10;;;;;;;91.10;27.85;;;;;;;16.35;100.00;101784.00;4986275;28;20034;-58
2023/09/02 04:18:36;;;;;;;89.85;29.15;;;;;;;16.38;100.00;101783.88;4986524;28;20576;-60
2023/09/02 04:21:03;;;;;;;126.18;29.67;;;;;;;16.38;100.00;101790.03;4993530;28;20113;-59
2023/09/02 04:23:28;;;;;;;70.78;27.55;;;;;;;16.38;100.00;101790.03;5007477;28;20029;-60
2023/09/02 04:25:55;;;;;;;95.72;33.67;;;;;;;16.40;100.00;101785.50;5006817;28;20449;-59
2023/09/02 04:28:21;;;;;;;307.83;40.88;;;;;;;16.30;100.00;101792.16;4989348;28;20122;-59
2023/09/02 04:30:46;;;;;;;319.13;39.78;;;;;;;16.25;100.00;101788.81;4987629;28;20030;-59
2023/09/02 04:33:13;;;;;;;169.45;37.42;;;;;;;16.25;100.00;101794.16;4986952;28;20027;-59
2023/09/02 04:35:44;;;;;;;345.75;48.58;;;;;;;16.21;100.00;101805.84;4987768;28;20021;-60
2023/09/02 04:38:10;;;;;;;262.40;47.00;;;;;;;16.23;100.00;101817.28;4987616;28;20389;-60
2023/09/02 04:40:39;;;;;;;154.00;39.42;;;;;;;16.35;100.00;101807.94;4987203;28;20070;-60
2023/09/02 04:43:05;;;;;;;212.40;43.58;;;;;;;16.36;100.00;101817.63;4987531;28;20037;-60
2023/09/02 04:45:32;;;;;;;158.70;44.03;;;;;;;16.37;100.00;101820.22;4987400;28;20062;-61
2023/09/02 04:47:58;;;;;;;504.33;55.03;;;;;;;16.36;100.00;101823.81;4997563;28;20026;-59
2023/09/02 04:50:23;;;;;;;190.88;48.85;;;;;;;16.35;100.00;101824.75;5006324;28;20044;-61
2023/09/02 04:52:49;;;;;;;307.95;51.42;;;;;;;16.35;100.00;101822.09;4996122;28;20034;-58
2023/09/02 04:55:15;;;;;;;208.98;47.55;;;;;;;16.34;100.00;101827.50;4987539;28;20070;-59
2023/09/02 04:57:40;;;;;;;323.27;49.35;;;;;;;16.33;100.00;101821.28;4992733;28;20109;-60
2023/09/02 05:00:07;;;;;;;282.80;51.50;;;;;;;16.33;100.00;101831.94;5006870;28;20085;-60
2023/09/02 05:02:32;;;;;;;402.30;54.13;;;;;;;16.25;100.00;101821.63;4986382;28;20029;-59
2023/09/02 05:04:58;;;;;;;220.38;46.80;;;;;;;16.28;100.00;101821.47;4986926;28;20022;-60
2023/09/02 05:07:23;;;;;;;163.00;41.85;;;;;;;16.39;100.00;101823.69;4982605;28;20125;-59
2023/09/02 05:09:51;;;;;;;142.75;42.33;;;;;;;16.45;100.00;101829.66;4987425;28;20030;-59
2023/09/02 05:12:16;;;;;;;202.82;44.42;;;;;;;16.32;100.00;101832.88;4987531;28;20073;-58
2023/09/02 05:14:41;;;;;;;305.38;48.83;;;;;;;16.16;100.00;101829.97;4989540;28;21068;-61
2023/09/02 05:17:07;;;;;;;293.15;47.28;;;;;;;16.16;100.00;101830.84;4990141;28;20101;-59
2023/09/02 05:19:32;;;;;;;216.60;42.67;;;;;;;16.21;100.00;101832.44;4990012;28;20058;-60
2023/09/02 05:21:57;;;;;;;214.25;43.08;;;;;;;16.18;100.00;101830.78;4989881;28;20014;-60
2023/09/02 05:24:23;;;;;;;245.95;42.05;;;;;;;16.20;100.00;101830.72;4989775;28;20051;-59
2023/09/02 05:26:49;;;;;;;158.65;36.72;;;;;;;16.20;100.00;101833.38;4998656;28;20499;-58
2023/09/02 05:29:14;;;;;;;173.02;36.65;;;;;;;16.16;100.00;101843.25;4992359;28;20031;-61
2023/09/02 05:31:39;;;;;;;236.77;38.88;;;;;;;16.14;100.00;101843.31;4987797;28;20034;-57
2023/09/02 05:34:05;;;;;;;124.53;34.25;;;;;;;16.23;100.00;101851.88;4989297;28;20030;-59
2023/09/02 05:36:30;;;;;;;327.65;40.47;;;;;;;16.22;100.00;101858.13;4989707;28;20543;-58
2023/09/02 05:38:55;;;;;;;104.72;32.88;;;;;;;16.22;100.00;101869.59;4990119;28;20029;-60
2023/09/02 05:41:21;;;;;;;111.35;32.80;;;;;;;16.28;100.00;101869.34;4988388;28;20023;-57
2023/09/02 05:43:46;;;;;;;180.93;32.47;;;;;;;16.24;100.00;101869.53;4989337;28;20081;-59
2023/09/02 05:46:11;;;;;;;106.35;30.13;;;;;;;16.29;100.00;101865.75;4989900;28;20485;-59
2023/09/02 05:48:37;;;;;;;77.05;29.00;;;;;;;16.33;100.00;101866.50;4987195;28;20473;-59
2023/09/02 05:51:02;;;;;;;88.65;29.63;;;;;;;16.40;100.00;101861.78;4989810;28;20446;-60
2023/09/02 05:53:29;;;;;;;83.18;29.48;;;;;;;16.33;100.00;101866.50;4988857;28;20697;-59
2023/09/02 05:55:57;;;;;;;79.15;26.95;;;;;;;16.38;100.00;101861.84;4990358;28;20041;-59
2023/09/02 05:58:24;;;;;;;102.97;25.83;;;;;;;16.32;100.00;101866.56;4988460;28;20014;-60
2023/09/02 06:00:49;;;;;;;91.85;24.65;;;;;;;16.33;100.00;101857.66;4989881;28;20015;-59
2023/09/02 06:03:14;;;;;;;53.45;20.27;;;;;;;16.36;100.00;101860.19;4988760;28;20033;-60
2023/09/02 06:05:40;;;;;;;56.92;22.90;;;;;;;16.35;100.00;101856.69;4988852;28;20617;-60
2023/09/02 06:08:05;;;;;;;113.38;26.35;;;;;;;16.32;100.00;101867.44;4989356;28;20050;-60
2023/09/02 06:10:31;;;;;;;63.17;22.38;;;;;;;16.36;100.00;101863.72;4988124;28;20038;-58
2023/09/02 06:12:56;;;;;;;62.88;21.33;;;;;;;16.30;100.00;101877.25;4988683;28;20057;-59
2023/09/02 06:15:21;;;;;;;113.30;22.00;;;;;;;16.21;100.00;101883.84;4989610;28;20039;-56
2023/09/02 06:17:46;;;;;;;124.45;25.10;;;;;;;16.17;100.00;101887.56;5007478;28;20041;-59
2023/09/02 06:20:15;;;;;;;112.20;26.08;;;;;;;16.16;100.00;101886.69;5007351;28;20053;-59
2023/09/02 06:22:41;;;;;;;;;;;;;;;16.23;100.00;101895.28;4987991;28;20022;-58
2023/09/02 06:25:06;;;;;;;106.28;25.33;;;;;;;16.24;100.00;101904.09;4987078;28;20274;-60
2023/09/02 06:27:32;;;;;;;146.18;26.98;;;;;;;16.41;100.00;101914.91;4987588;28;20125;-60
2023/09/02 06:29:57;;;;;;;94.45;23.52;;;;;;;16.38;100.00;101922.16;4987161;28;20441;-59
2023/09/02 06:32:22;;;;;;;182.75;24.45;;;;;;;16.42;100.00;101924.63;4997741;28;20033;-59
2023/09/02 06:34:48;;;;;;;58.80;19.15;;;;;;;16.41;100.00;101944.16;4992027;28;20401;-60
2023/09/02 06:37:13;;;;;;;158.18;22.95;;;;;;;16.44;100.00;101940.53;4985737;28;20407;-58
2023/09/02 06:39:39;;;;;;;99.95;22.58;;;;;;;16.46;100.00;101948.47;4988177;28;20053;-59
2023/09/02 06:42:04;;;;;;;72.30;22.25;;;;;;;16.57;100.00;101951.53;4969769;28;20093;-59
2023/09/02 06:44:29;;;;;;;107.10;22.98;;;;;;;16.61;100.00;101955.78;4988094;28;20037;-59
2023/09/02 06:46:55;;;;;;;80.90;21.85;;;;;;;16.68;100.00;101951.94;4987878;28;20062;-57
2023/09/02 06:49:20;;;;;;;84.68;23.98;;;;;;;16.68;100.00;101959.91;4995463;28;20109;-58
2023/09/02 06:51:45;;;;;;;128.85;22.98;;;;;;;16.61;100.00;101961.09;4993449;28;20106;-59
2023/09/02 06:54:11;;;;;;;120.75;23.92;;;;;;;16.68;100.00;101967.91;4979385;28;20129;-59
2023/09/02 06:56:36;;;;;;;65.18;21.95;;;;;;;16.73;100.00;101974.81;4983408;28;20089;-59
2023/09/02 06:59:02;;;;;;;100.03;21.70;;;;;;;16.84;100.00;101980.56;4987132;28;20060;-59
2023/09/02 07:01:28;;;;;;;64.57;22.95;;;;;;;16.92;100.00;101978.44;4987202;28;20085;-58
2023/09/02 07:03:55;;;;;;;95.03;23.60;;;;;;;17.00;100.00;101971.91;4987471;28;20026;-58
2023/09/02 07:06:20;;;;;;;58.63;23.33;;;;;;;16.97;100.00;101969.38;4988665;28;20030;-60
2023/09/02 07:08:45;;;;;;;73.00;23.75;;;;;;;17.05;100.00;101965.47;4988203;28;20042;-59
2023/09/02 07:11:11;;;;;;;51.28;21.35;;;;;;;17.08;100.00;101969.84;4988251;28;20093;-60
2023/09/02 07:13:38;;;;;;;99.18;26.35;;;;;;;17.14;100.00;101969.56;4988587;28;20377;-59
2023/09/02 07:16:04;;;;;;;76.05;25.35;;;;;;;17.22;100.00;101971.03;4988878;28;20680;-61
2023/09/02 07:18:30;;;;;;;100.35;27.00;;;;;;;17.26;100.00;101975.28;4987577;28;20058;-58
2023/09/02 07:20:59;;;;;;;91.38;27.30;;;;;;;17.17;100.00;101985.41;4989058;28;20046;-59
2023/09/02 07:23:25;;;;;;;64.13;27.98;;;;;;;17.12;100.00;101986.53;4988983;28;20034;-58
2023/09/02 07:25:50;;;;;;;127.82;30.58;;;;;;;17.09;100.00;101991.97;4988883;28;20078;-59
2023/09/02 07:28:15;;;;;;;75.30;28.98;;;;;;;17.17;100.00;102001.41;4988218;28;20065;-59
2023/09/02 07:30:41;;;;;;;76.47;31.52;;;;;;;17.36;100.00;101992.59;4988628;28;20026;-59
2023/09/02 07:33:06;;;;;;;71.22;29.75;;;;;;;17.55;100.00;101999.75;4987253;28;20101;-59
2023/09/02 07:35:36;;;;;;;84.78;29.23;;;;;;;17.59;100.00;102013.81;4988311;28;20037;-57
2023/09/02 07:38:05;;;;;;;52.20;27.48;;;;;;;17.72;100.00;102019.44;4987957;28;20018;-61
2023/09/02 07:40:30;;;;;;;;;;;;;;;17.80;100.00;102014.63;4988560;28;20026;-60
2023/09/02 07:42:57;;;;;;;68.73;28.00;;;;;;;17.87;100.00;102026.75;4989127;28;19913;-58
2023/09/02 07:45:22;;;;;;;77.50;28.08;;;;;;;17.73;100.00;102024.69;4995416;28;20289;-59
2023/09/02 07:47:48;;;;;;;59.42;27.58;;;;;;;17.70;100.00;102022.16;4994512;28;20519;-60
2023/09/02 07:50:13;;;;;;;60.80;27.27;;;;;;;17.78;100.00;102027.16;4988832;28;20061;-64
2023/09/02 07:52:38;;;;;;;49.88;25.98;;;;;;;17.91;100.00;102032.81;4989305;28;20027;-64
2023/09/02 07:55:04;;;;;;;42.35;23.65;;;;;;;17.86;100.00;102037.47;4988771;28;20042;-59
2023/09/02 07:57:30;;;;;;;48.58;25.50;;;;;;;17.81;100.00;102032.34;4988430;28;20033;-60
2023/09/02 07:59:56;;;;;;;52.25;26.48;;;;;;;17.85;100.00;102033.94;4987875;28;20118;-59
2023/09/02 08:02:22;;;;;;;52.35;26.33;;;;;;;17.91;100.00;102032.81;4987581;28;20117;-60
2023/09/02 08:04:47;;;;;;;53.45;28.27;;;;;;;18.11;100.00;102028.34;4988212;28;20027;-60
2023/09/02 08:07:12;;;;;;;54.83;27.65;;;;;;;18.31;100.00;102041.59;4987309;28;20069;-58
2023/09/02 08:09:38;;;;;;;55.22;29.15;;;;;;;18.59;100.00;102043.88;4988619;28;20077;-59
2023/09/02 08:12:03;;;;;;;49.05;27.75;;;;;;;18.61;100.00;102048.22;4988160;28;20037;-60
2023/09/02 08:14:29;;;;;;;51.85;27.33;;;;;;;18.68;100.00;102049.66;4987358;28;20389;-62
2023/09/02 08:16:54;;;;;;;47.97;27.52;;;;;;;18.80;100.00;102047.31;4986224;28;20018;-58
2023/09/02 08:19:19;;;;;;;50.17;28.85;;;;;;;18.90;100.00;102043.22;4987039;28;20145;-59
2023/09/02 08:21:45;;;;;;;51.58;29.35;;;;;;;18.93;100.00;102032.41;4985890;28;20030;-61
2023/09/02 08:24:10;;;;;;;57.35;30.65;;;;;;;19.16;100.00;102043.75;4986916;28;20473;-59
2023/09/02 08:26:35;;;;;;;46.90;27.38;;;;;;;19.14;100.00;102047.47;4988373;28;20088;-59
2023/09/02 08:29:01;;;;;;;52.08;28.67;;;;;;;19.16;100.00;102046.44;4988941;28;20034;-61
2023/09/02 08:31:26;;;;;;;48.03;27.92;;;;;;;19.18;100.00;102041.84;4988581;28;20022;-61
2023/09/02 08:33:51;;;;;;;51.25;28.27;;;;;;;19.12;100.00;102035.97;4990648;28;20030;-61
2023/09/02 08:36:17;;;;;;;50.90;29.02;;;;;;;19.08;100.00;102035.25;4988496;28;20113;-59
2023/09/02 08:38:43;;;;;;;54.25;29.42;;;;;;;19.06;100.00;102035.31;4989129;28;20031;-61
2023/09/02 08:41:13;;;;;;;47.13;26.50;;;;;;;19.29;100.00;102033.28;4988313;28;20058;-61
2023/09/02 08:43:39;;;;;;;50.38;28.27;;;;;;;19.55;100.00;102032.88;4986885;28;20116;-59
2023/09/02 08:46:06;;;;;;;47.78;29.45;;;;;;;19.69;100.00;102043.66;4969681;28;20117;-57
2023/09/02 08:48:33;;;;;;;54.22;29.85;;;;;;;19.66;100.00;102048.34;4987604;28;20033;-61
2023/09/02 08:50:59;;;;;;;47.40;28.55;;;;;;;20.14;100.00;102061.81;4974049;28;20026;-59
2023/09/02 08:53:25;;;;;;;45.38;27.70;;;;;;;20.32;100.00;102067.94;4990551;28;20026;-59
2023/09/02 08:55:51;;;;;;;46.60;29.08;;;;;;;20.39;100.00;102062.25;4973905;28;20465;-59
2023/09/02 08:58:17;;;;;;;50.50;28.65;;;;;;;20.49;100.00;102063.47;4991342;28;20030;-59
2023/09/02 09:00:43;;;;;;;39.97;25.60;;;;;;;20.80;100.00;102071.56;4991194;28;20030;-61
2023/09/02 09:03:11;;;;;;;37.92;25.42;;;;;;;20.62;100.00;102074.31;4991409;28;20080;-61
2023/09/02 09:05:38;;;;;;;;;;;;;;;20.46;100.00;102077.03;4991709;28;20026;-59
2023/09/02 09:08:03;;;;;;;39.20;26.10;;;;;;;20.48;100.00;102074.25;4959321;28;19918;-63
2023/09/02 09:10:32;;;;;;;38.58;25.55;;;;;;;20.60;100.00;102078.91;4972185;28;20366;-59
2023/09/02 09:12:58;;;;;;;40.50;26.23;;;;;;;20.52;100.00;102087.38;4965508;28;20056;-59
2023/09/02 09:15:23;;;;;;;36.70;24.20;;;;;;;20.76;100.00;102084.25;4993823;28;20075;-59
2023/09/02 09:17:49;;;;;;;38.83;24.77;;;;;;;20.91;100.00;102090.56;4993428;28;20427;-60
2023/09/02 09:20:15;;;;;;;37.28;25.88;;;;;;;21.13;100.00;102097.34;4994376;28;20030;-59
2023/09/02 09:22:41;;;;;;;40.40;25.63;;;;;;;21.33;100.00;102100.66;4990838;28;20589;-59
2023/09/02 09:25:07;;;;;;;42.40;27.13;;;;;;;21.35;100.00;102106.78;4990360;28;20069;-59
2023/09/02 09:27:34;;;;;;;37.38;25.33;;;;;;;21.30;100.00;102104.38;4990831;28;20092;-59
2023/09/02 09:30:00;;;;;;;39.03;24.70;;;;;;;21.66;100.00;102114.78;4990740;28;20027;-59
2023/09/02 09:32:25;;;;;;;34.38;24.73;;;;;;;21.77;100.00;102116.84;4989748;28;20145;-59
2023/09/02 09:34:50;;;;;;;36.85;25.13;;;;;;;21.88;100.00;102122.41;4991395;28;20034;-61
2023/09/02 09:37:16;;;;;;;38.35;25.00;;;;;;;22.02;100.00;102126.91;4996680;28;20483;-60
2023/09/02 09:39:42;;;;;;;34.95;25.08;;;;;;;22.23;100.00;102118.47;4990266;28;20026;-59
2023/09/02 09:42:09;;;;;;;37.72;25.35;;;;;;;22.13;100.00;102122.69;4990329;28;20033;-61
2023/09/02 09:44:34;;;;;;;36.83;25.15;;;;;;;22.24;100.00;102119.34;4990376;28;20026;-61
2023/09/02 09:47:00;;;;;;;35.55;24.58;;;;;;;22.32;100.00;102117.00;4990466;28;20042;-61
2023/09/02 09:49:30;;;;;;;33.08;23.10;;;;;;;22.03;100.00;102122.44;4975815;28;20109;-59
2023/09/02 09:52:01;;;;;;;35.55;23.15;;;;;;;21.76;100.00;102137.44;4990380;28;20036;-60
2023/09/02 09:54:56;;;;;;;36.25;23.00;;;;;;;21.92;100.00;102137.38;4989641;28;20070;-60
2023/09/02 09:57:30;;;;;;;34.97;22.52;;;;;;;21.98;100.00;102145.97;4990458;28;20030;-60
2023/09/02 09:59:56;;;;;;;36.65;23.38;;;;;;;22.12;100.00;102150.50;4988015;28;20030;-59
2023/09/02 10:02:21;;;;;;;34.67;21.73;;;;;;;21.91;100.00;102154.41;4990416;28;20109;-61
2023/09/02 10:04:52;;;;;;;34.05;22.25;;;;;;;21.71;100.00;102163.66;4989324;28;20034;-60
2023/09/02 10:07:31;;;;;;;33.53;22.23;;;;;;;21.68;100.00;102161.16;4989796;28;20054;-59
2023/09/02 10:10:02;;;;;;;33.47;21.23;;;;;;;21.50;100.00;102166.69;4990296;28;20018;-59
2023/09/02 10:12:33;;;;;;;36.17;22.13;;;;;;;21.56;100.00;102169.00;4989510;28;20026;-60
2023/09/02 10:14:59;;;;;;;38.70;22.20;;;;;;;21.68;100.00;102167.41;4989423;28;20038;-58
2023/09/02 10:17:26;;;;;;;33.42;21.38;;;;;;;21.68;100.00;102167.41;4988767;28;20023;-59
2023/09/02 10:19:51;;;;;;;38.15;21.27;;;;;;;21.76;100.00;102168.78;4972410;28;20042;-57
2023/09/02 10:22:20;;;;;;;31.98;20.73;;;;;;;21.76;100.00;102174.16;4989742;28;20034;-60
2023/09/02 10:24:51;;;;;;;;;;;;;;;21.69;100.00;102171.78;4990121;28;20026;-61
2023/09/02 10:27:21;;;;;;;33.58;20.88;;;;;;;;;;4989950;28;20384;-59
2023/09/02 10:29:57;;;;;;;34.85;21.40;;;;;;;22.05;100.00;102171.47;4989716;28;20058;-60
2023/09/02 10:32:26;;;;;;;33.97;19.92;;;;;;;21.91;100.00;102183.09;4989337;28;20037;-60
2023/09/02 10:35:11;;;;;;;32.78;18.30;;;;;;;22.43;100.00;102180.78;4973593;28;20528;-60
2023/09/02 10:37:58;;;;;;;31.23;19.63;;;;;;;22.35;100.00;102173.22;4989479;28;20026;-61
2023/09/02 10:40:25;;;;;;;34.60;19.15;;;;;;;22.91;100.00;102171.50;4990093;28;20707;-59
2023/09/02 10:42:52;;;;;;;26.13;18.52;;;;;;;22.66;100.00;102168.59;4973238;28;20026;-60
2023/09/02 10:45:18;;;;;;;27.33;19.27;;;;;;;22.71;100.00;102169.16;4989376;28;20366;-60
2023/09/02 10:47:44;;;;;;;30.23;19.70;;;;;;;22.88;100.00;102171.69;4987494;28;20030;-59
2023/09/02 10:50:11;;;;;;;31.27;19.98;;;;;;;23.06;100.00;102169.63;4972089;28;20631;-60
2023/09/02 10:52:36;;;;;;;30.73;20.17;;;;;;;22.90;100.00;102170.63;4971775;28;20044;-60
2023/09/02 10:55:08;;;;;;;30.50;21.27;;;;;;;22.62;100.00;102168.88;4971444;28;20646;-60
2023/09/02 10:57:51;;;;;;;33.10;22.80;;;;;;;22.08;100.00;102166.78;4989271;28;20117;-59